createdAt,value
2023-02-17T00:01:36.148Z,74.17
2023-02-17T00:04:04.432Z,69.30
2023-02-17T00:06:32.579Z,62.40
2023-02-17T00:09:01.761Z,62.90
2023-02-17T00:11:31.170Z,51.33
2023-02-17T00:14:00.293Z,56.17
2023-02-17T00:16:28.990Z,48.90
2023-02-17T00:19:01.110Z,56.97
2023-02-17T00:21:31.391Z,47.03
2023-02-17T00:24:00.097Z,62.20
2023-02-17T00:26:28.159Z,53.47
2023-02-17T00:28:59.158Z,58.10
2023-02-17T00:31:27.089Z,50.83
2023-02-17T00:33:56.398Z,54.90
2023-02-17T00:36:26.155Z,50.20
2023-02-17T00:38:56.485Z,50.97
2023-02-17T00:41:26.217Z,61.27
2023-02-17T00:43:54.340Z,56.20
2023-02-17T00:46:25.954Z,49.43
2023-02-17T00:48:54.517Z,38.97
2023-02-17T00:51:22.735Z,38.03
2023-02-17T00:53:51.046Z,46.40
2023-02-17T00:56:18.881Z,37.57
2023-02-17T00:58:46.733Z,39.33
2023-02-17T01:01:15.059Z,44.33
2023-02-17T01:03:45.255Z,41.20
2023-02-17T01:06:35.313Z,39.90
2023-02-17T01:09:05.112Z,41.47
2023-02-17T01:11:35.709Z,48.40
2023-02-17T01:14:06.288Z,40.80
2023-02-17T01:16:38.373Z,40.00
2023-02-17T01:19:11.570Z,43.50
2023-02-17T01:21:40.694Z,38.63
2023-02-17T01:24:13.599Z,42.23
2023-02-17T01:26:41.604Z,42.47
2023-02-17T01:29:09.442Z,37.43
2023-02-17T01:31:37.548Z,37.33
2023-02-17T01:34:07.388Z,31.10
2023-02-17T01:36:39.012Z,34.30
2023-02-17T01:39:06.867Z,32.17
2023-02-17T01:41:34.684Z,34.97
2023-02-17T01:44:12.611Z,44.57
2023-02-17T01:46:43.591Z,38.83
2023-02-17T01:49:30.440Z,48.20
2023-02-17T01:54:42.606Z,30.07
2023-02-17T01:57:15.205Z,36.85
2023-02-17T01:59:45.021Z,37.07
2023-02-17T02:02:14.218Z,38.87
2023-02-17T02:04:51.271Z,40.27
2023-02-17T02:07:26.336Z,40.97
2023-02-17T02:09:57.400Z,37.25
2023-02-17T02:12:29.571Z,38.40
2023-02-17T02:15:01.432Z,43.20
2023-02-17T02:17:44.624Z,41.10
2023-02-17T02:20:41.970Z,40.23
2023-02-17T02:23:45.086Z,31.37
2023-02-17T02:27:25.630Z,36.40
2023-02-17T02:30:45.258Z,34.50
2023-02-17T02:33:24.271Z,38.20
2023-02-17T02:36:03.551Z,38.43
2023-02-17T02:38:41.796Z,26.27
2023-02-17T02:41:17.930Z,33.70
2023-02-17T02:43:47.956Z,34.73
2023-02-17T02:46:16.309Z,28.00
2023-02-17T02:48:47.054Z,28.37
2023-02-17T02:51:41.793Z,32.57
2023-02-17T02:54:26.874Z,32.77
2023-02-17T02:57:16.063Z,30.87
2023-02-17T03:00:04.630Z,33.87
2023-02-17T03:02:44.729Z,25.30
2023-02-17T03:05:24.182Z,22.63
2023-02-17T03:08:00.643Z,23.83
2023-02-17T03:10:28.926Z,25.35
2023-02-17T03:12:58.166Z,22.83
2023-02-17T03:15:31.784Z,25.57
2023-02-17T03:18:02.692Z,23.33
2023-02-17T03:20:38.909Z,24.97
2023-02-17T03:23:07.396Z,23.90
2023-02-17T03:25:35.692Z,22.33
2023-02-17T03:28:04.129Z,20.03
2023-02-17T03:30:32.084Z,21.43
2023-02-17T03:32:59.812Z,19.97
2023-02-17T03:35:27.635Z,21.27
2023-02-17T03:37:56.783Z,20.83
2023-02-17T03:40:24.614Z,19.03
2023-02-17T03:42:52.450Z,19.37
2023-02-17T03:45:20.225Z,20.50
2023-02-17T03:47:48.219Z,17.50
2023-02-17T03:50:16.433Z,18.93
2023-02-17T03:52:45.523Z,17.70
2023-02-17T03:55:14.683Z,19.27
2023-02-17T03:57:42.625Z,17.53
2023-02-17T04:00:12.045Z,17.73
2023-02-17T04:02:44.194Z,20.33
2023-02-17T04:05:12.124Z,17.37
2023-02-17T04:07:40.092Z,19.13
2023-02-17T04:10:09.812Z,18.47
2023-02-17T04:12:38.993Z,15.37
2023-02-17T04:15:07.793Z,16.43
2023-02-17T04:17:36.350Z,16.80
2023-02-17T04:20:06.952Z,15.10
2023-02-17T04:22:34.759Z,14.87
2023-02-17T04:25:02.559Z,15.97
2023-02-17T04:27:30.451Z,14.37
2023-02-17T04:29:59.672Z,14.03
2023-02-17T04:32:27.517Z,16.17
2023-02-17T04:34:55.361Z,15.77
2023-02-17T04:37:23.423Z,16.33
2023-02-17T04:39:51.290Z,15.00
2023-02-17T04:42:19.099Z,15.33
2023-02-17T04:44:46.852Z,15.20
2023-02-17T04:47:15.993Z,16.23
2023-02-17T04:49:43.871Z,15.83
2023-02-17T04:52:11.675Z,17.40
2023-02-17T04:54:39.437Z,18.50
2023-02-17T04:57:07.335Z,17.67
2023-02-17T04:59:35.449Z,17.10
2023-02-17T05:02:03.743Z,17.60
2023-02-17T05:04:33.136Z,17.37
2023-02-17T05:07:00.977Z,16.73
2023-02-17T05:09:28.944Z,16.33
2023-02-17T05:11:57.377Z,16.30
2023-02-17T05:14:25.472Z,13.10
2023-02-17T05:16:53.390Z,16.50
2023-02-17T05:19:21.317Z,14.20
2023-02-17T05:21:51.305Z,15.87
2023-02-17T05:24:19.099Z,14.27
2023-02-17T05:26:46.891Z,18.13
2023-02-17T05:29:14.695Z,18.03
2023-02-17T05:31:42.758Z,17.47
2023-02-17T05:34:10.621Z,18.30
2023-02-17T05:36:38.429Z,16.20
2023-02-17T05:39:08.944Z,17.40
2023-02-17T05:41:36.794Z,16.33
2023-02-17T05:44:05.053Z,17.07
2023-02-17T05:46:32.981Z,14.97
2023-02-17T05:49:00.837Z,14.23
2023-02-17T05:51:28.658Z,14.17
2023-02-17T05:53:56.548Z,14.27
2023-02-17T05:56:25.682Z,11.30
2023-02-17T05:58:53.455Z,9.97
2023-02-17T06:01:21.601Z,10.63
2023-02-17T06:03:49.416Z,11.17
2023-02-17T06:06:17.261Z,11.53
2023-02-17T06:08:45.318Z,11.70
2023-02-17T06:11:13.172Z,10.93
2023-02-17T06:13:42.475Z,10.20
2023-02-17T06:16:10.524Z,9.63
2023-02-17T06:18:38.395Z,11.83
2023-02-17T06:21:06.454Z,10.40
2023-02-17T06:23:34.450Z,12.00
2023-02-17T06:26:02.280Z,11.33
2023-02-17T06:28:29.980Z,12.37
2023-02-17T06:30:59.189Z,11.27
2023-02-17T06:33:26.989Z,11.10
2023-02-17T06:35:54.820Z,10.53
2023-02-17T06:38:22.858Z,10.20
2023-02-17T06:40:50.675Z,12.80
2023-02-17T06:43:18.393Z,10.80
2023-02-17T06:45:46.589Z,9.70
2023-02-17T06:48:15.733Z,10.83
2023-02-17T06:50:43.619Z,10.17
2023-02-17T06:53:11.862Z,12.50
2023-02-17T06:55:39.710Z,9.70
2023-02-17T06:58:08.211Z,11.00
2023-02-17T07:00:35.983Z,12.40
2023-02-17T07:03:03.940Z,11.77
2023-02-17T07:05:35.179Z,10.40
2023-02-17T07:08:05.001Z,9.80
2023-02-17T07:10:32.967Z,13.00
2023-02-17T07:13:00.864Z,10.60
2023-02-17T07:15:28.747Z,9.47
2023-02-17T07:17:56.495Z,8.70
2023-02-17T07:20:24.442Z,10.93
2023-02-17T07:22:53.563Z,10.73
2023-02-17T07:25:21.426Z,10.00
2023-02-17T07:27:49.245Z,8.07
2023-02-17T07:30:17.622Z,9.67
2023-02-17T07:32:45.527Z,9.33
2023-02-17T07:35:13.355Z,9.73
2023-02-17T07:37:41.179Z,11.10
2023-02-17T07:40:11.828Z,10.43
2023-02-17T07:42:39.735Z,9.87
2023-02-17T07:45:08.452Z,10.63
2023-02-17T07:47:36.317Z,12.30
2023-02-17T07:50:05.044Z,10.87
2023-02-17T07:52:32.876Z,16.00
2023-02-17T07:55:00.733Z,13.63
2023-02-17T07:57:30.481Z,9.87
2023-02-17T07:59:58.358Z,15.83
2023-02-17T08:02:26.538Z,13.30
2023-02-17T08:04:54.457Z,14.73
2023-02-17T08:07:22.242Z,13.57
2023-02-17T08:10:08.651Z,14.90
2023-02-17T08:13:09.843Z,12.83
2023-02-17T08:15:37.700Z,14.57
2023-02-17T08:18:06.367Z,13.07
2023-02-17T08:20:35.302Z,15.27
2023-02-17T08:23:03.705Z,13.23
2023-02-17T08:25:33.414Z,13.60
2023-02-17T08:28:05.695Z,13.13
2023-02-17T08:30:36.363Z,13.10
2023-02-17T08:33:04.871Z,12.97
2023-02-17T08:35:32.917Z,15.77
2023-02-17T08:38:00.647Z,16.00
2023-02-17T08:40:29.168Z,15.13
2023-02-17T08:42:57.060Z,11.30
2023-02-17T08:45:26.365Z,14.87
2023-02-17T08:47:54.095Z,17.40
2023-02-17T08:50:23.667Z,13.50
2023-02-17T08:52:51.476Z,15.87
2023-02-17T08:55:20.277Z,15.03
2023-02-17T08:57:48.040Z,13.87
2023-02-17T09:00:18.305Z,12.63
2023-02-17T09:02:47.668Z,12.97
2023-02-17T09:05:15.563Z,15.93
2023-02-17T09:07:43.515Z,13.27
2023-02-17T09:10:13.211Z,13.63
2023-02-17T09:12:41.585Z,14.43
2023-02-17T09:15:09.871Z,15.50
2023-02-17T09:17:40.775Z,13.90
2023-02-17T09:20:23.853Z,14.30
2023-02-17T09:22:52.884Z,14.40
2023-02-17T09:25:20.895Z,13.47
2023-02-17T09:27:49.148Z,14.93
2023-02-17T09:30:17.328Z,13.10
2023-02-17T09:32:45.179Z,12.93
2023-02-17T09:35:16.997Z,12.80
2023-02-17T09:37:45.623Z,14.87
2023-02-17T09:40:20.368Z,12.30
2023-02-17T09:42:49.555Z,12.95
2023-02-17T09:45:26.054Z,12.03
2023-02-17T09:48:00.431Z,14.23
2023-02-17T09:50:43.756Z,12.67
2023-02-17T09:53:23.873Z,12.30
2023-02-17T09:55:55.319Z,12.30
2023-02-17T09:58:34.033Z,14.20
2023-02-17T10:01:06.960Z,13.97
2023-02-17T10:03:41.416Z,12.63
2023-02-17T10:06:16.793Z,14.40
2023-02-17T10:08:53.864Z,13.15
2023-02-17T10:11:32.291Z,12.93
2023-02-17T10:14:05.904Z,11.53
2023-02-17T10:16:44.100Z,14.77
2023-02-17T10:19:19.570Z,12.90
2023-02-17T10:21:58.873Z,11.55
2023-02-17T10:24:27.153Z,13.23
2023-02-17T10:27:22.755Z,14.10
2023-02-17T10:30:15.034Z,10.43
2023-02-17T10:33:01.318Z,10.93
2023-02-17T10:35:52.755Z,10.80
2023-02-17T10:38:46.042Z,9.97
2023-02-17T10:41:20.926Z,9.80
2023-02-17T10:43:50.573Z,11.05
2023-02-17T10:46:31.256Z,11.07
2023-02-17T10:49:00.374Z,11.73
2023-02-17T10:51:31.765Z,10.53
2023-02-17T10:54:08.231Z,10.77
2023-02-17T10:56:41.775Z,11.13
2023-02-17T10:59:21.850Z,9.67
2023-02-17T11:01:50.902Z,9.43
2023-02-17T11:04:18.982Z,10.32
2023-02-17T11:06:51.834Z,8.57
2023-02-17T11:09:30.642Z,10.20
2023-02-17T11:12:06.058Z,8.93
2023-02-17T11:14:43.641Z,12.60
2023-02-17T11:17:21.000Z,9.40
2023-02-17T11:19:58.579Z,8.32
2023-02-17T11:22:33.954Z,10.50
2023-02-17T11:25:08.241Z,9.13
2023-02-17T11:27:36.308Z,9.30
2023-02-17T11:30:15.983Z,10.90
2023-02-17T11:32:47.822Z,9.93
2023-02-17T11:35:42.718Z,9.73
2023-02-17T11:38:14.567Z,10.35
2023-02-17T11:40:58.680Z,9.95
2023-02-17T11:43:28.796Z,9.43
2023-02-17T11:46:24.178Z,10.38
2023-02-17T11:49:55.510Z,9.98
2023-02-17T11:52:41.027Z,9.25
2023-02-17T11:55:23.826Z,8.23
2023-02-17T11:58:15.406Z,9.65
2023-02-17T12:00:56.039Z,8.97
2023-02-17T12:04:04.354Z,10.75
2023-02-17T12:06:43.738Z,8.88
2023-02-17T12:09:26.093Z,9.10
2023-02-17T12:12:04.123Z,10.17
2023-02-17T12:14:58.646Z,9.30
2023-02-17T12:17:43.279Z,9.90
2023-02-17T12:20:42.104Z,9.70
2023-02-17T12:23:35.886Z,10.30
2023-02-17T12:26:13.917Z,10.33
2023-02-17T12:28:59.706Z,10.20
2023-02-17T12:32:06.001Z,13.60
2023-02-17T12:34:41.898Z,10.05
2023-02-17T12:37:23.982Z,10.90
2023-02-17T12:39:57.003Z,10.50
2023-02-17T12:42:33.831Z,10.13
2023-02-17T12:45:07.877Z,9.13
2023-02-17T12:47:50.287Z,8.63
2023-02-17T12:50:27.429Z,8.77
2023-02-17T12:53:02.607Z,9.60
2023-02-17T12:55:41.669Z,9.32
2023-02-17T12:58:17.975Z,8.90
2023-02-17T13:00:50.548Z,10.32
2023-02-17T13:03:20.408Z,10.60
2023-02-17T13:06:00.617Z,9.18
2023-02-17T13:08:40.014Z,10.23
2023-02-17T13:11:13.561Z,7.67
2023-02-17T13:13:42.262Z,7.50
2023-02-17T13:16:14.466Z,8.33
2023-02-17T13:18:46.736Z,7.70
2023-02-17T13:21:32.090Z,9.97
2023-02-17T13:24:03.905Z,9.80
2023-02-17T13:26:34.088Z,14.07
2023-02-17T13:29:35.741Z,11.70
2023-02-17T13:32:07.059Z,16.30
2023-02-17T13:34:42.475Z,15.50
2023-02-17T13:37:28.210Z,10.77
2023-02-17T13:39:56.580Z,14.50
2023-02-17T13:42:38.267Z,13.77
2023-02-17T13:45:25.749Z,13.30
2023-02-17T13:47:57.378Z,19.50
2023-02-17T13:50:33.170Z,14.17
2023-02-17T13:53:02.628Z,12.17
2023-02-17T13:55:31.084Z,11.23
2023-02-17T13:58:00.254Z,14.50
2023-02-17T14:00:30.862Z,11.40
2023-02-17T14:03:06.218Z,12.30
2023-02-17T14:05:44.206Z,13.70
2023-02-17T14:08:18.568Z,12.73
2023-02-17T14:10:47.169Z,16.23
2023-02-17T14:13:15.652Z,11.23
2023-02-17T14:15:53.958Z,12.20
2023-02-17T14:18:32.657Z,19.80
2023-02-17T14:21:10.473Z,15.00
2023-02-17T14:23:54.226Z,11.13
2023-02-17T14:26:32.510Z,13.47
2023-02-17T14:29:03.623Z,15.40
2023-02-17T14:31:39.776Z,14.73
2023-02-17T14:34:26.019Z,14.97
2023-02-17T14:37:09.141Z,10.98
2023-02-17T14:39:38.142Z,13.37
2023-02-17T14:42:09.129Z,14.00
2023-02-17T14:44:37.465Z,11.67
2023-02-17T14:47:06.260Z,12.37
2023-02-17T14:49:34.636Z,14.63
2023-02-17T14:52:21.027Z,15.13
2023-02-17T14:54:50.097Z,14.10
2023-02-17T14:57:26.143Z,14.63
2023-02-17T14:59:57.674Z,13.83
2023-02-17T15:02:26.188Z,14.97
2023-02-17T15:04:54.691Z,13.67
2023-02-17T15:07:24.518Z,11.90
2023-02-17T15:09:52.660Z,11.43
2023-02-17T15:12:22.186Z,12.10
2023-02-17T15:14:50.334Z,13.23
2023-02-17T15:17:18.282Z,12.93
2023-02-17T15:19:46.116Z,13.87
2023-02-17T15:22:14.746Z,15.87
2023-02-17T15:24:43.945Z,14.87
2023-02-17T15:27:15.012Z,12.53
2023-02-17T15:29:43.191Z,14.80
2023-02-17T15:32:19.029Z,14.53
2023-02-17T15:34:47.085Z,12.80
2023-02-17T15:37:15.055Z,11.30
2023-02-17T15:39:44.634Z,14.90
2023-02-17T15:42:14.470Z,11.57
2023-02-17T15:44:47.741Z,9.40
2023-02-17T15:47:19.807Z,9.43
2023-02-17T15:49:47.856Z,10.17
2023-02-17T15:52:15.668Z,10.30
2023-02-17T15:54:46.112Z,12.20
2023-02-17T15:57:22.219Z,10.77
2023-02-17T15:59:51.218Z,10.10
2023-02-17T16:02:22.497Z,10.57
2023-02-17T16:04:50.626Z,12.50
2023-02-17T16:07:18.449Z,11.63
2023-02-17T16:09:47.644Z,10.73
2023-02-17T16:12:19.044Z,9.67
2023-02-17T16:14:47.214Z,13.53
2023-02-17T16:17:16.599Z,9.57
2023-02-17T16:19:44.552Z,8.90
2023-02-17T16:22:13.166Z,10.20
2023-02-17T16:24:41.079Z,7.17
2023-02-17T16:27:14.833Z,9.53
2023-02-17T16:29:43.503Z,12.57
2023-02-17T16:32:12.683Z,12.33
2023-02-17T16:34:41.005Z,10.53
2023-02-17T16:37:14.979Z,9.07
2023-02-17T16:39:44.379Z,8.70
2023-02-17T16:42:15.524Z,9.27
2023-02-17T16:44:44.195Z,8.93
2023-02-17T16:47:22.346Z,9.70
2023-02-17T16:49:50.496Z,8.80
2023-02-17T16:52:24.999Z,11.37
2023-02-17T16:54:52.975Z,10.30
2023-02-17T16:57:22.857Z,9.73
2023-02-17T16:59:50.801Z,7.93
2023-02-17T17:02:20.260Z,7.83
2023-02-17T17:04:50.354Z,10.23
2023-02-17T17:07:18.144Z,8.17
2023-02-17T17:10:06.773Z,8.33
2023-02-17T17:12:35.235Z,10.70
2023-02-17T17:15:03.506Z,8.57
2023-02-17T17:17:38.791Z,10.70
2023-02-17T17:20:12.239Z,10.07
2023-02-17T17:22:40.403Z,9.77
2023-02-17T17:25:08.574Z,11.97
2023-02-17T17:27:37.799Z,8.87
2023-02-17T17:30:09.758Z,9.50
2023-02-17T17:32:37.610Z,10.97
2023-02-17T17:35:06.482Z,8.80
2023-02-17T17:37:34.606Z,8.40
2023-02-17T17:40:02.652Z,11.53
2023-02-17T17:42:30.653Z,11.20
2023-02-17T17:44:59.831Z,12.40
2023-02-17T17:47:30.466Z,11.13
2023-02-17T17:49:58.480Z,12.00
2023-02-17T17:52:26.397Z,9.07
2023-02-17T17:54:54.263Z,15.47
2023-02-17T17:57:22.602Z,10.73
2023-02-17T17:59:50.596Z,11.93
2023-02-17T18:02:20.192Z,15.47
2023-02-17T18:04:48.453Z,15.07
2023-02-17T18:07:16.877Z,17.97
2023-02-17T18:09:45.269Z,13.27
2023-02-17T18:12:18.707Z,16.77
2023-02-17T18:14:51.670Z,22.10
2023-02-17T18:17:23.258Z,18.60
2023-02-17T18:19:54.900Z,20.43
2023-02-17T18:22:23.001Z,21.53
2023-02-17T18:24:51.202Z,24.03
2023-02-17T18:27:19.138Z,25.70
2023-02-17T18:29:46.934Z,20.27
2023-02-17T18:32:14.894Z,26.17
2023-02-17T18:34:44.128Z,25.63
2023-02-17T18:37:11.990Z,31.07
2023-02-17T18:39:39.972Z,17.13
2023-02-17T18:42:07.790Z,30.87
2023-02-17T18:44:35.756Z,34.23
2023-02-17T18:47:03.737Z,22.87
2023-02-17T18:49:31.547Z,33.60
2023-02-17T18:52:00.687Z,33.03
2023-02-17T18:54:28.508Z,32.80
2023-02-17T18:56:56.521Z,44.93
2023-02-17T18:59:24.321Z,31.13
2023-02-17T19:01:52.101Z,33.87
2023-02-17T19:04:20.188Z,25.13
2023-02-17T19:06:48.204Z,26.23
2023-02-17T19:09:17.393Z,26.77
2023-02-17T19:11:45.120Z,20.10
2023-02-17T19:14:13.066Z,19.60
2023-02-17T19:16:41.180Z,20.33
2023-02-17T19:19:09.271Z,21.97
2023-02-17T19:21:37.471Z,22.50
2023-02-17T19:24:05.605Z,21.73
2023-02-17T19:26:36.723Z,25.27
2023-02-17T19:29:04.693Z,28.20
2023-02-17T19:31:33.469Z,23.97
2023-02-17T19:34:01.985Z,29.87
2023-02-17T19:36:29.976Z,35.27
2023-02-17T19:38:58.463Z,20.23
2023-02-17T19:41:26.419Z,34.77
2023-02-17T19:43:55.729Z,23.83
2023-02-17T19:46:25.700Z,28.70
2023-02-17T19:48:54.098Z,20.20
2023-02-17T19:51:22.583Z,18.50
2023-02-17T19:53:50.890Z,27.47
2023-02-17T19:56:22.375Z,26.40
2023-02-17T19:58:51.372Z,30.17
2023-02-17T20:01:23.512Z,32.60
2023-02-17T20:03:54.591Z,26.40
2023-02-17T20:06:26.608Z,24.00
2023-02-17T20:08:58.551Z,26.93
2023-02-17T20:11:28.597Z,23.03
2023-02-17T20:13:59.212Z,28.43
2023-02-17T20:16:29.799Z,23.27
2023-02-17T20:19:01.621Z,21.20
2023-02-17T20:21:33.886Z,23.67
2023-02-17T20:24:02.200Z,21.70
2023-02-17T20:26:33.301Z,31.93
2023-02-17T20:29:01.766Z,20.10
2023-02-17T20:31:31.621Z,17.87
2023-02-17T20:34:02.981Z,12.77
2023-02-17T20:36:31.331Z,19.43
2023-02-17T20:38:59.436Z,16.13
2023-02-17T20:41:27.716Z,19.90
2023-02-17T20:43:55.795Z,14.67
2023-02-17T20:46:27.888Z,19.93
2023-02-17T20:48:58.707Z,20.67
2023-02-17T20:51:26.684Z,17.10
2023-02-17T20:53:54.777Z,18.77
2023-02-17T20:56:25.483Z,17.23
2023-02-17T20:58:54.850Z,20.17
2023-02-17T21:01:22.924Z,24.40
2023-02-17T21:03:53.255Z,24.63
2023-02-17T21:06:28.537Z,23.00
2023-02-17T21:09:00.166Z,32.88
2023-02-17T21:11:29.023Z,24.87
2023-02-17T21:13:57.247Z,27.57
2023-02-17T21:16:30.944Z,28.00
2023-02-17T21:19:01.012Z,30.07
2023-02-17T21:21:32.294Z,32.10
2023-02-17T21:24:00.571Z,29.83
2023-02-17T21:26:28.741Z,30.83
2023-02-17T21:28:57.256Z,35.10
2023-02-17T21:31:27.868Z,38.33
2023-02-17T21:33:58.510Z,33.23
2023-02-17T21:36:29.079Z,37.50
2023-02-17T21:38:59.227Z,36.83
2023-02-17T21:41:29.910Z,36.53
2023-02-17T21:44:17.363Z,35.33
2023-02-17T21:46:46.652Z,42.77
2023-02-17T21:49:15.117Z,39.87
2023-02-17T21:51:43.904Z,34.97
2023-02-17T21:54:14.053Z,45.40
2023-02-17T21:56:45.814Z,50.73
2023-02-17T21:59:14.236Z,38.73
2023-02-17T22:01:42.755Z,46.33
2023-02-17T22:04:10.960Z,41.10
2023-02-17T22:06:41.793Z,42.40
2023-02-17T22:09:17.845Z,33.07
2023-02-17T22:11:47.216Z,40.33
2023-02-17T22:14:19.002Z,36.70
2023-02-17T22:16:48.968Z,34.80
2023-02-17T22:19:22.188Z,32.27
2023-02-17T22:21:52.139Z,28.53
2023-02-17T22:24:22.665Z,29.43
2023-02-17T22:26:50.952Z,29.70
2023-02-17T22:29:19.274Z,32.20
2023-02-17T22:31:48.996Z,30.93
2023-02-17T22:34:19.736Z,29.80
2023-02-17T22:36:48.294Z,27.07
2023-02-17T22:39:18.062Z,32.70
2023-02-17T22:41:47.891Z,33.87
2023-02-17T22:44:19.381Z,30.73
2023-02-17T22:46:47.764Z,31.13
2023-02-17T22:49:15.803Z,30.63
2023-02-17T22:51:43.908Z,36.00
2023-02-17T22:54:12.020Z,33.40
2023-02-17T22:56:39.912Z,38.87
2023-02-17T22:59:09.166Z,37.10
2023-02-17T23:01:37.306Z,38.43
2023-02-17T23:04:06.192Z,34.40
2023-02-17T23:06:37.560Z,35.97
2023-02-17T23:09:08.549Z,36.90
2023-02-17T23:11:54.445Z,39.23
2023-02-17T23:17:00.121Z,38.67
2023-02-17T23:19:29.764Z,39.10
2023-02-17T23:22:01.148Z,38.53
2023-02-17T23:24:29.295Z,40.87
2023-02-17T23:27:00.274Z,36.37
2023-02-17T23:29:31.217Z,33.40
2023-02-17T23:31:59.369Z,35.33
2023-02-17T23:34:28.447Z,39.33
2023-02-17T23:36:57.115Z,41.47
2023-02-17T23:39:25.992Z,43.07
2023-02-17T23:41:53.863Z,36.40
2023-02-17T23:44:21.747Z,36.67
2023-02-17T23:46:50.792Z,36.77
2023-02-17T23:49:18.679Z,39.30
2023-02-17T23:51:47.236Z,34.73
2023-02-17T23:54:15.458Z,38.23
2023-02-17T23:56:43.644Z,39.20
2023-02-17T23:59:11.984Z,35.53
